createdAt,value
2019-02-23T00:00:12.713Z,42.35
2019-02-23T00:02:41.763Z,39.30
2019-02-23T00:05:10.591Z,43.75
2019-02-23T00:07:39.532Z,47.15
2019-02-23T00:10:08.555Z,40.25
2019-02-23T00:12:37.484Z,44.63
2019-02-23T00:15:06.756Z,44.18
2019-02-23T00:17:35.775Z,47.10
2019-02-23T00:20:05.007Z,48.95
2019-02-23T00:22:33.825Z,47.53
2019-02-23T00:25:02.769Z,53.65
2019-02-23T00:27:31.688Z,58.70
2019-02-23T00:30:00.544Z,48.25
2019-02-23T00:32:29.395Z,54.33
2019-02-23T00:34:58.296Z,46.42
2019-02-23T00:37:27.275Z,46.23
2019-02-23T00:39:56.267Z,47.40
2019-02-23T00:42:25.194Z,44.93
2019-02-23T00:44:54.032Z,47.95
2019-02-23T00:47:22.937Z,55.20
2019-02-23T00:49:51.839Z,45.17
2019-02-23T00:52:20.736Z,50.12
2019-02-23T00:54:49.577Z,58.30
2019-02-23T00:57:18.549Z,48.17
2019-02-23T00:59:47.375Z,51.45
2019-02-23T01:02:16.287Z,44.20
2019-02-23T01:04:45.182Z,49.50
2019-02-23T01:07:14.083Z,48.48
2019-02-23T01:09:43.013Z,41.88
2019-02-23T01:12:11.861Z,45.43
2019-02-23T01:14:40.857Z,49.88
2019-02-23T01:17:09.874Z,50.70
2019-02-23T01:19:47.374Z,44.93
2019-02-23T01:22:09.443Z,47.20
2019-02-23T01:24:38.433Z,49.30
2019-02-23T01:27:07.491Z,54.53
2019-02-23T01:29:36.440Z,56.75
2019-02-23T01:32:05.355Z,53.52
2019-02-23T01:34:34.193Z,49.15
2019-02-23T01:37:03.237Z,48.50
2019-02-23T01:39:32.220Z,53.28
2019-02-23T01:42:01.183Z,47.45
2019-02-23T01:44:30.068Z,45.35
2019-02-23T01:46:58.999Z,48.58
2019-02-23T01:49:27.996Z,46.10
2019-02-23T01:51:56.951Z,47.95
2019-02-23T01:54:25.879Z,45.65
2019-02-23T01:56:54.777Z,51.08
2019-02-23T01:59:23.657Z,49.75
2019-02-23T02:01:52.627Z,44.63
2019-02-23T02:04:21.533Z,45.83
2019-02-23T02:06:50.441Z,46.68
2019-02-23T02:09:19.447Z,52.30
2019-02-23T02:11:48.352Z,48.13
2019-02-23T02:14:17.339Z,50.40
2019-02-23T02:16:46.239Z,45.92
2019-02-23T02:19:15.102Z,51.00
2019-02-23T02:21:44.218Z,46.55
2019-02-23T02:24:13.183Z,46.02
2019-02-23T02:26:42.027Z,46.60
2019-02-23T02:29:10.959Z,52.67
2019-02-23T02:31:39.960Z,51.85
2019-02-23T02:34:18.244Z,48.42
2019-02-23T02:36:47.328Z,47.15
2019-02-23T02:39:16.646Z,47.17
2019-02-23T02:41:45.648Z,49.58
2019-02-23T02:44:14.563Z,41.28
2019-02-23T02:46:43.554Z,51.37
2019-02-23T02:49:12.468Z,45.92
2019-02-23T02:51:41.387Z,43.78
2019-02-23T02:54:10.228Z,44.30
2019-02-23T02:56:39.150Z,49.20
2019-02-23T02:59:08.072Z,43.42
2019-02-23T03:01:37.053Z,42.03
2019-02-23T03:04:05.948Z,45.35
2019-02-23T03:06:34.810Z,44.13
2019-02-23T03:09:06.460Z,41.37
2019-02-23T03:11:35.296Z,40.95
2019-02-23T03:14:04.215Z,45.35
2019-02-23T03:16:33.209Z,41.50
2019-02-23T03:19:02.268Z,47.73
2019-02-23T03:21:31.213Z,45.60
2019-02-23T03:24:00.103Z,49.00
2019-02-23T03:26:28.942Z,45.52
2019-02-23T03:28:57.860Z,45.73
2019-02-23T03:31:26.709Z,40.83
2019-02-23T03:33:58.400Z,44.55
2019-02-23T03:36:27.221Z,41.75
2019-02-23T03:38:56.080Z,46.58
2019-02-23T03:41:25.011Z,40.67
2019-02-23T03:43:54.004Z,45.85
2019-02-23T03:46:22.965Z,46.18
2019-02-23T03:48:51.803Z,46.30
2019-02-23T03:51:20.701Z,47.65
2019-02-23T03:53:49.718Z,43.25
2019-02-23T03:56:18.692Z,50.23
2019-02-23T03:58:47.615Z,42.78
2019-02-23T04:01:16.603Z,41.83
2019-02-23T04:03:45.423Z,39.88
2019-02-23T04:06:14.343Z,39.55
2019-02-23T04:08:43.249Z,42.98
2019-02-23T04:11:12.136Z,38.40
2019-02-23T04:13:41.123Z,38.33
2019-02-23T04:16:10.051Z,37.80
2019-02-23T04:18:39.053Z,35.43
2019-02-23T04:21:07.964Z,40.75
2019-02-23T04:23:36.870Z,39.30
2019-02-23T04:26:05.844Z,39.10
2019-02-23T04:28:34.697Z,34.60
2019-02-23T04:31:03.585Z,34.63
2019-02-23T04:33:32.416Z,39.85
2019-02-23T04:36:01.272Z,35.45
2019-02-23T04:38:30.223Z,36.10
2019-02-23T04:40:59.071Z,39.03
2019-02-23T04:43:27.998Z,36.77
2019-02-23T04:45:56.825Z,37.70
2019-02-23T04:48:25.691Z,44.95
2019-02-23T04:50:54.581Z,43.35
2019-02-23T04:53:23.508Z,43.68
2019-02-23T04:55:52.337Z,39.40
2019-02-23T04:58:21.176Z,36.85
2019-02-23T05:00:50.177Z,36.40
2019-02-23T05:03:19.171Z,37.25
2019-02-23T05:05:48.097Z,35.95
2019-02-23T05:08:16.934Z,39.33
2019-02-23T05:10:45.773Z,38.08
2019-02-23T05:13:14.612Z,41.10
2019-02-23T05:15:43.453Z,34.53
2019-02-23T05:18:12.457Z,36.98
2019-02-23T05:20:41.360Z,37.25
2019-02-23T05:23:10.280Z,42.88
2019-02-23T05:25:39.128Z,35.08
2019-02-23T05:28:07.962Z,35.63
2019-02-23T05:30:36.872Z,33.67
2019-02-23T05:33:05.693Z,31.97
2019-02-23T05:35:34.553Z,38.00
2019-02-23T05:38:03.484Z,32.20
2019-02-23T05:40:32.413Z,31.93
2019-02-23T05:43:01.528Z,33.35
2019-02-23T05:45:30.445Z,34.75
2019-02-23T05:47:59.307Z,37.28
2019-02-23T05:50:28.217Z,35.50
2019-02-23T05:52:57.150Z,32.30
2019-02-23T05:55:26.109Z,34.83
2019-02-23T05:57:54.929Z,31.48
2019-02-23T06:00:23.916Z,32.42
2019-02-23T06:02:52.777Z,35.25
2019-02-23T06:05:23.428Z,33.65
2019-02-23T06:07:52.346Z,29.37
2019-02-23T06:10:21.280Z,34.40
2019-02-23T06:12:50.160Z,33.85
2019-02-23T06:15:19.105Z,35.95
2019-02-23T06:17:48.110Z,29.70
2019-02-23T06:20:16.936Z,32.78
2019-02-23T06:22:46.836Z,31.73
2019-02-23T06:25:15.974Z,30.82
2019-02-23T06:27:44.869Z,36.68
2019-02-23T06:30:13.811Z,37.10
2019-02-23T06:32:42.796Z,35.13
2019-02-23T06:35:11.677Z,38.78
2019-02-23T06:37:40.609Z,38.58
2019-02-23T06:40:09.601Z,31.62
2019-02-23T06:42:38.444Z,30.65
2019-02-23T06:45:07.778Z,32.60
2019-02-23T06:47:36.627Z,39.75
2019-02-23T06:50:05.932Z,34.95
2019-02-23T06:52:34.830Z,37.63
2019-02-23T06:55:09.164Z,31.80
2019-02-23T06:57:38.151Z,38.85
2019-02-23T07:00:09.212Z,37.10
2019-02-23T07:02:38.050Z,39.00
2019-02-23T07:05:07.045Z,34.92
2019-02-23T07:07:36.096Z,44.05
2019-02-23T07:10:05.707Z,38.78
2019-02-23T07:12:34.554Z,37.33
2019-02-23T07:15:05.199Z,34.05
2019-02-23T07:17:34.023Z,42.45
2019-02-23T07:20:03.085Z,33.80
2019-02-23T07:22:33.789Z,34.78
2019-02-23T07:25:02.708Z,33.33
2019-02-23T07:27:31.654Z,37.13
2019-02-23T07:30:00.515Z,35.20
2019-02-23T07:32:29.477Z,37.23
2019-02-23T07:34:58.481Z,33.90
2019-02-23T07:37:27.448Z,34.50
2019-02-23T07:39:56.358Z,33.35
2019-02-23T07:42:25.265Z,35.23
2019-02-23T07:44:54.263Z,37.70
2019-02-23T07:47:23.173Z,37.75
2019-02-23T07:49:52.080Z,34.40
2019-02-23T07:52:26.199Z,35.90
2019-02-23T07:54:51.641Z,36.40
2019-02-23T07:57:20.656Z,35.90
2019-02-23T07:59:49.542Z,37.08
2019-02-23T08:02:18.518Z,30.32
2019-02-23T08:04:47.406Z,34.75
2019-02-23T08:07:16.470Z,32.67
2019-02-23T08:09:45.377Z,33.75
2019-02-23T08:12:14.292Z,32.73
2019-02-23T08:14:43.143Z,32.83
2019-02-23T08:17:12.004Z,35.92
2019-02-23T08:19:41.063Z,31.02
2019-02-23T08:22:09.882Z,30.32
2019-02-23T08:24:38.918Z,29.27
2019-02-23T08:27:07.757Z,34.43
2019-02-23T08:29:36.596Z,34.63
2019-02-23T08:32:05.504Z,31.77
2019-02-23T08:34:34.357Z,36.95
2019-02-23T08:37:03.366Z,33.78
2019-02-23T08:39:32.243Z,32.67
2019-02-23T08:42:01.169Z,31.40
2019-02-23T08:44:30.001Z,30.77
2019-02-23T08:46:58.943Z,34.45
2019-02-23T08:49:27.957Z,32.55
2019-02-23T08:51:56.909Z,31.37
2019-02-23T08:54:25.840Z,31.35
2019-02-23T08:56:55.437Z,33.38
2019-02-23T08:59:24.326Z,28.38
2019-02-23T09:01:54.848Z,34.63
2019-02-23T09:04:23.853Z,30.52
2019-02-23T09:06:52.756Z,30.48
2019-02-23T09:09:21.738Z,30.92
2019-02-23T09:11:50.824Z,32.28
2019-02-23T09:14:19.876Z,31.70
2019-02-23T09:16:48.815Z,29.72
2019-02-23T09:19:17.769Z,30.30
2019-02-23T09:22:40.703Z,30.57
2019-02-23T09:25:09.900Z,31.00
2019-02-23T09:27:38.921Z,30.62
2019-02-23T09:30:08.737Z,31.95
2019-02-23T09:32:37.571Z,27.75
2019-02-23T09:35:07.468Z,31.95
2019-02-23T09:37:36.451Z,30.95
2019-02-23T09:40:07.725Z,26.62
2019-02-23T09:42:36.728Z,30.50
2019-02-23T09:45:06.490Z,32.17
2019-02-23T09:47:35.462Z,32.65
2019-02-23T09:50:04.707Z,28.98
2019-02-23T09:52:33.712Z,27.05
2019-02-23T09:55:02.745Z,30.52
2019-02-23T09:57:31.773Z,30.82
2019-02-23T10:00:00.937Z,27.87
2019-02-23T10:02:29.894Z,28.45
2019-02-23T10:04:58.957Z,28.12
2019-02-23T10:07:28.206Z,25.70
2019-02-23T10:09:57.072Z,34.48
2019-02-23T10:12:26.057Z,31.52
2019-02-23T10:14:55.130Z,27.62
2019-02-23T10:17:23.988Z,29.80
2019-02-23T10:19:52.960Z,28.57
2019-02-23T10:22:21.917Z,26.17
2019-02-23T10:24:50.837Z,29.37
2019-02-23T10:27:19.868Z,26.30
2019-02-23T10:29:48.744Z,25.88
2019-02-23T10:32:17.820Z,30.88
2019-02-23T10:34:46.756Z,26.30
2019-02-23T10:37:15.684Z,30.37
2019-02-23T10:39:44.644Z,26.20
2019-02-23T10:42:13.632Z,24.75
2019-02-23T10:44:42.682Z,24.20
2019-02-23T10:47:11.591Z,25.82
2019-02-23T10:49:40.436Z,22.95
2019-02-23T10:52:09.471Z,23.83
2019-02-23T10:54:38.365Z,22.95
2019-02-23T10:57:07.399Z,25.55
2019-02-23T10:59:36.418Z,23.52
2019-02-23T11:02:05.520Z,27.90
2019-02-23T11:04:34.373Z,23.52
2019-02-23T11:07:03.468Z,24.90
2019-02-23T11:09:34.607Z,23.52
2019-02-23T11:12:03.600Z,24.63
2019-02-23T11:14:32.561Z,27.27
2019-02-23T11:17:01.554Z,27.58
2019-02-23T11:19:30.561Z,23.00
2019-02-23T11:21:59.578Z,24.52
2019-02-23T11:24:28.498Z,25.32
2019-02-23T11:26:57.535Z,20.80
2019-02-23T11:29:26.623Z,21.10
2019-02-23T11:31:55.545Z,23.40
2019-02-23T11:34:24.517Z,25.68
2019-02-23T11:36:53.500Z,23.67
2019-02-23T11:39:22.404Z,32.95
2019-02-23T11:41:51.219Z,24.95
2019-02-23T11:44:20.327Z,23.80
2019-02-23T11:46:59.863Z,22.93
2019-02-23T11:49:19.727Z,21.73
2019-02-23T11:51:48.641Z,23.73
2019-02-23T11:54:17.641Z,24.45
2019-02-23T11:56:46.711Z,24.20
2019-02-23T11:59:15.610Z,21.15
2019-02-23T12:01:44.528Z,23.73
2019-02-23T12:04:13.376Z,21.80
2019-02-23T12:06:42.400Z,22.80
2019-02-23T12:09:11.428Z,22.05
2019-02-23T12:11:40.297Z,22.07
2019-02-23T12:14:09.341Z,20.45
2019-02-23T12:16:41.500Z,25.17
2019-02-23T12:19:10.429Z,20.48
2019-02-23T12:21:39.450Z,19.55
2019-02-23T12:24:08.435Z,23.18
2019-02-23T12:26:37.449Z,22.48
2019-02-23T12:29:06.324Z,22.93
2019-02-23T12:31:35.307Z,23.30
2019-02-23T12:34:04.308Z,21.02
2019-02-23T12:36:33.348Z,20.20
2019-02-23T12:39:02.372Z,22.65
2019-02-23T12:41:31.370Z,21.75
2019-02-23T12:44:00.442Z,19.75
2019-02-23T12:46:29.443Z,19.12
2019-02-23T12:48:58.393Z,23.92
2019-02-23T12:51:27.285Z,21.82
2019-02-23T12:53:56.231Z,19.60
2019-02-23T12:56:25.205Z,20.25
2019-02-23T12:58:54.135Z,19.67
2019-02-23T13:01:23.137Z,18.05
2019-02-23T13:03:52.607Z,21.33
2019-02-23T13:06:21.528Z,20.75
2019-02-23T13:09:22.438Z,19.62
2019-02-23T13:11:55.473Z,21.50
2019-02-23T13:14:33.684Z,20.80
2019-02-23T13:17:17.828Z,21.23
2019-02-23T13:20:11.130Z,22.15
2019-02-23T13:23:06.793Z,19.50
2019-02-23T13:26:06.651Z,21.17
2019-02-23T13:29:01.109Z,19.62
2019-02-23T13:31:56.446Z,21.23
2019-02-23T13:35:09.471Z,20.02
2019-02-23T13:37:59.759Z,18.60
2019-02-23T13:40:57.364Z,21.57
2019-02-23T13:43:59.609Z,20.68
2019-02-23T13:46:57.140Z,20.25
2019-02-23T13:50:11.679Z,23.12
2019-02-23T13:53:21.383Z,19.25
2019-02-23T13:56:37.486Z,20.90
2019-02-23T13:59:41.437Z,20.55
2019-02-23T14:02:53.105Z,21.90
2019-02-23T14:05:39.673Z,21.80
2019-02-23T14:08:35.349Z,22.80
2019-02-23T14:11:35.899Z,20.35
2019-02-23T14:14:29.573Z,23.55
2019-02-23T14:17:44.621Z,22.80
2019-02-23T14:20:32.215Z,21.60
2019-02-23T14:23:33.506Z,25.05
2019-02-23T14:26:37.613Z,22.42
2019-02-23T14:29:30.485Z,19.62
2019-02-23T14:32:10.584Z,22.48
2019-02-23T14:35:12.703Z,24.02
2019-02-23T14:38:06.174Z,24.98
2019-02-23T14:40:45.363Z,22.22
2019-02-23T14:43:59.430Z,20.88
2019-02-23T14:47:08.001Z,24.00
2019-02-23T14:50:16.631Z,24.37
2019-02-23T14:53:09.814Z,23.25
2019-02-23T14:56:22.105Z,25.10
2019-02-23T14:59:13.672Z,23.10
2019-02-23T15:02:16.945Z,27.60
2019-02-23T15:05:28.783Z,23.40
2019-02-23T15:08:15.109Z,23.40
2019-02-23T15:11:23.923Z,24.43
2019-02-23T15:14:19.423Z,24.47
2019-02-23T15:17:31.911Z,21.77
2019-02-23T15:20:24.904Z,24.23
2019-02-23T15:23:27.967Z,23.47
2019-02-23T15:26:51.281Z,22.48
2019-02-23T15:30:19.209Z,22.60
2019-02-23T15:33:29.057Z,24.20
2019-02-23T15:36:07.256Z,21.33
2019-02-23T15:39:26.722Z,20.50
2019-02-23T15:42:19.723Z,22.82
2019-02-23T15:45:36.566Z,23.25
2019-02-23T15:48:45.841Z,20.92
2019-02-23T15:51:15.064Z,20.52
2019-02-23T15:53:44.074Z,23.57
2019-02-23T15:56:12.998Z,24.82
2019-02-23T15:58:42.063Z,21.05
2019-02-23T16:01:11.080Z,26.33
2019-02-23T16:03:40.076Z,25.12
2019-02-23T16:06:09.012Z,29.27
2019-02-23T16:08:37.834Z,30.27
2019-02-23T16:11:06.876Z,26.77
2019-02-23T16:13:35.955Z,24.75
2019-02-23T16:16:04.981Z,23.73
2019-02-23T16:18:34.028Z,20.15
2019-02-23T16:21:03.023Z,19.32
2019-02-23T16:23:35.210Z,19.32
2019-02-23T16:26:02.531Z,18.62
2019-02-23T16:28:33.328Z,21.02
2019-02-23T16:31:02.431Z,21.37
2019-02-23T16:33:31.275Z,19.90
2019-02-23T16:36:00.412Z,20.52
2019-02-23T16:38:29.600Z,18.05
2019-02-23T16:40:58.702Z,20.95
2019-02-23T16:43:27.662Z,19.42
2019-02-23T16:45:56.625Z,17.57
2019-02-23T16:48:25.717Z,17.55
2019-02-23T16:50:54.651Z,19.30
2019-02-23T16:53:25.429Z,20.15
2019-02-23T16:55:54.437Z,20.32
2019-02-23T16:58:23.608Z,20.12
2019-02-23T17:00:55.467Z,21.10
2019-02-23T17:03:24.417Z,17.25
2019-02-23T17:05:53.477Z,18.17
2019-02-23T17:08:22.497Z,17.37
2019-02-23T17:10:51.336Z,18.48
2019-02-23T17:13:20.314Z,23.27
2019-02-23T17:15:49.412Z,18.67
2019-02-23T17:18:18.456Z,17.98
2019-02-23T17:20:47.368Z,19.67
2019-02-23T17:23:16.309Z,19.05
2019-02-23T17:25:45.313Z,18.62
2019-02-23T17:28:14.165Z,20.52
2019-02-23T17:30:43.079Z,21.20
2019-02-23T17:33:11.941Z,17.95
2019-02-23T17:35:40.882Z,20.60
2019-02-23T17:38:16.292Z,20.45
2019-02-23T17:40:40.446Z,19.92
2019-02-23T17:43:09.279Z,17.65
2019-02-23T17:45:38.176Z,20.12
2019-02-23T17:48:07.390Z,19.25
2019-02-23T17:50:36.548Z,20.17
2019-02-23T17:53:05.653Z,22.62
2019-02-23T17:55:34.687Z,18.20
2019-02-23T17:58:03.558Z,18.52
2019-02-23T18:00:32.625Z,21.80
2019-02-23T18:03:01.455Z,23.10
2019-02-23T18:05:30.487Z,19.65
2019-02-23T18:07:59.491Z,20.50
2019-02-23T18:10:28.432Z,19.73
2019-02-23T18:12:57.457Z,22.58
2019-02-23T18:15:26.656Z,21.02
2019-02-23T18:17:55.718Z,18.98
2019-02-23T18:20:24.879Z,21.07
2019-02-23T18:22:53.912Z,20.40
2019-02-23T18:25:23.048Z,17.95
2019-02-23T18:27:52.009Z,20.05
2019-02-23T18:30:21.010Z,20.60
2019-02-23T18:32:49.907Z,19.07
2019-02-23T18:35:18.851Z,22.15
2019-02-23T18:37:47.723Z,23.80
2019-02-23T18:40:16.763Z,19.73
2019-02-23T18:42:45.729Z,17.60
2019-02-23T18:45:14.848Z,20.37
2019-02-23T18:47:43.888Z,21.25
2019-02-23T18:50:12.934Z,20.27
2019-02-23T18:52:41.874Z,20.72
2019-02-23T18:55:10.706Z,21.37
2019-02-23T18:57:39.739Z,20.92
2019-02-23T19:00:09.943Z,22.13
2019-02-23T19:02:38.985Z,21.65
2019-02-23T19:05:09.821Z,19.15
2019-02-23T19:07:38.645Z,18.80
2019-02-23T19:10:09.309Z,26.77
2019-02-23T19:12:38.364Z,21.37
2019-02-23T19:15:08.373Z,21.42
2019-02-23T19:17:37.352Z,19.20
2019-02-23T19:20:08.589Z,16.85
2019-02-23T19:22:37.573Z,21.20
2019-02-23T19:25:07.022Z,20.95
2019-02-23T19:27:36.130Z,22.10
2019-02-23T19:30:05.370Z,24.20
2019-02-23T19:32:34.396Z,20.82
2019-02-23T19:35:03.440Z,22.50
2019-02-23T19:37:32.657Z,22.07
2019-02-23T19:40:01.663Z,19.87
2019-02-23T19:42:30.695Z,20.40
2019-02-23T19:44:59.740Z,18.57
2019-02-23T19:47:31.701Z,21.45
2019-02-23T19:50:05.184Z,21.23
2019-02-23T19:52:34.260Z,20.30
2019-02-23T19:55:03.208Z,19.80
2019-02-23T19:57:32.261Z,19.85
2019-02-23T20:00:01.311Z,20.43
2019-02-23T20:02:30.372Z,23.45
2019-02-23T20:04:59.315Z,20.95
2019-02-23T20:07:28.257Z,21.55
2019-02-23T20:09:57.237Z,21.33
2019-02-23T20:12:26.188Z,19.75
2019-02-23T20:14:55.105Z,20.57
2019-02-23T20:17:24.074Z,22.50
2019-02-23T20:19:53.056Z,21.95
2019-02-23T20:22:22.007Z,23.07
2019-02-23T20:24:50.860Z,23.22
2019-02-23T20:27:19.973Z,22.85
2019-02-23T20:29:49.007Z,19.62
2019-02-23T20:32:17.919Z,20.23
2019-02-23T20:34:46.853Z,22.15
2019-02-23T20:37:15.961Z,24.92
2019-02-23T20:39:45.696Z,22.87
2019-02-23T20:42:14.697Z,25.20
2019-02-23T20:44:43.513Z,21.93
2019-02-23T20:47:17.310Z,21.65
2019-02-23T20:49:50.281Z,25.20
2019-02-23T20:52:23.118Z,24.43
2019-02-23T20:54:55.553Z,23.12
2019-02-23T20:57:24.431Z,20.65
2019-02-23T20:59:53.403Z,22.25
2019-02-23T21:02:22.610Z,21.23
2019-02-23T21:04:51.579Z,24.15
2019-02-23T21:07:20.747Z,22.00
2019-02-23T21:09:49.857Z,20.20
2019-02-23T21:12:19.042Z,20.68
2019-02-23T21:14:48.226Z,22.37
2019-02-23T21:17:17.208Z,22.10
2019-02-23T21:19:46.174Z,20.45
2019-02-23T21:22:15.191Z,23.07
2019-02-23T21:24:44.062Z,21.60
2019-02-23T21:27:13.341Z,22.42
2019-02-23T21:29:42.330Z,19.62
2019-02-23T21:32:11.575Z,20.90
2019-02-23T21:34:40.933Z,21.93
2019-02-23T21:37:10.083Z,20.90
2019-02-23T21:39:40.446Z,21.60
2019-02-23T21:42:09.589Z,22.10
2019-02-23T21:44:38.897Z,18.37
2019-02-23T21:47:07.830Z,18.87
2019-02-23T21:49:36.768Z,20.23
2019-02-23T21:52:06.006Z,20.25
2019-02-23T21:54:34.921Z,20.97
2019-02-23T21:57:04.274Z,23.77
2019-02-23T21:59:34.472Z,25.25
2019-02-23T22:02:03.720Z,24.37
2019-02-23T22:04:32.712Z,21.97
2019-02-23T22:07:01.969Z,20.88
2019-02-23T22:09:31.238Z,19.75
2019-02-23T22:12:00.357Z,19.95
2019-02-23T22:14:29.349Z,18.95
2019-02-23T22:16:58.396Z,24.32
2019-02-23T22:19:27.821Z,20.90
2019-02-23T22:21:56.752Z,18.23
2019-02-23T22:24:25.865Z,21.62
2019-02-23T22:26:54.911Z,18.70
2019-02-23T22:29:23.962Z,17.37
2019-02-23T22:31:52.925Z,18.42
2019-02-23T22:34:24.911Z,19.23
2019-02-23T22:36:53.973Z,20.92
2019-02-23T22:39:22.864Z,21.93
2019-02-23T22:41:52.187Z,17.90
2019-02-23T22:44:21.721Z,18.48
2019-02-23T22:46:50.793Z,18.55
2019-02-23T22:49:19.789Z,21.10
2019-02-23T22:51:48.771Z,18.37
2019-02-23T22:54:17.892Z,18.50
2019-02-23T22:56:46.851Z,20.02
2019-02-23T22:59:15.948Z,18.55
2019-02-23T23:01:45.132Z,19.42
2019-02-23T23:04:14.080Z,16.97
2019-02-23T23:06:42.984Z,22.98
2019-02-23T23:09:16.860Z,20.55
2019-02-23T23:11:45.714Z,19.57
2019-02-23T23:14:14.651Z,17.98
2019-02-23T23:16:43.596Z,20.62
2019-02-23T23:19:12.428Z,21.42
2019-02-23T23:21:41.355Z,19.65
2019-02-23T23:24:10.268Z,19.90
2019-02-23T23:26:39.128Z,16.77
2019-02-23T23:29:08.067Z,19.40
2019-02-23T23:31:36.982Z,22.73
2019-02-23T23:34:05.998Z,19.82
2019-02-23T23:36:35.016Z,21.80
2019-02-23T23:39:05.365Z,18.25
2019-02-23T23:41:34.364Z,21.15
2019-02-23T23:44:03.371Z,19.23
2019-02-23T23:46:32.300Z,18.65
2019-02-23T23:49:01.165Z,21.27
2019-02-23T23:51:30.129Z,20.48
2019-02-23T23:53:59.172Z,21.12
2019-02-23T23:56:27.994Z,21.07
2019-02-23T23:58:56.900Z,19.57
